Time;durP1;ratioP1;P1;durP2;ratioP2;P2;SDS_P1;SDS_P2;PMS_P1;PMS_P2;Temp;Humidity;BMP_temperature;BMP_pressure;BME280_temperature;BME280_humidity;BME280_pressure;Samples;Min_cycle;Max_cycle;Signal;HPM_P1;HPM_P2
2021/12/22 00:01:35;;;;;;;5.03;4.53;;;19.30;41.20;;;;;;5114025;28;20561;-21
2021/12/22 00:04:03;;;;;;;5.10;4.53;;;19.20;41.20;;;;;;5114352;28;20584;-22
2021/12/22 00:06:32;;;;;;;4.93;4.37;;;19.20;41.20;;;;;;5096015;28;20238;-23
2021/12/22 00:08:58;;;;;;;5.73;4.67;;;19.10;41.20;;;;;;5094592;28;20292;-21
2021/12/22 00:11:25;;;;;;;6.13;4.90;;;19.00;41.40;;;;;;5114053;28;20197;-22
2021/12/22 00:13:50;;;;;;;5.23;4.33;;;18.90;41.40;;;;;;5094814;28;20588;-22
2021/12/22 00:16:16;;;;;;;4.80;4.30;;;18.80;41.50;;;;;;5113436;28;20541;-21
2021/12/22 00:18:42;;;;;;;5.00;4.47;;;18.70;41.60;;;;;;5114130;28;20186;-23
2021/12/22 00:21:08;;;;;;;4.97;4.27;;;18.60;41.70;;;;;;5095842;28;20189;-20
2021/12/22 00:23:33;;;;;;;4.80;4.20;;;18.50;41.80;;;;;;5096648;28;20200;-21
2021/12/22 00:25:59;;;;;;;6.10;4.60;;;18.40;41.80;;;;;;5096505;28;20180;-23
2021/12/22 00:28:25;;;;;;;4.80;4.23;;;18.30;41.90;;;;;;5114115;28;20204;-23
2021/12/22 00:30:52;;;;;;;4.67;4.07;;;18.20;42.00;;;;;;5094367;28;20197;-22
2021/12/22 00:33:19;;;;;;;4.43;3.93;;;18.10;42.10;;;;;;5112613;28;20188;-24
2021/12/22 00:35:45;;;;;;;6.07;4.23;;;18.00;42.20;;;;;;5111423;28;20184;-23
2021/12/22 00:38:19;;;;;;;5.33;4.30;;;18.00;42.30;;;;;;5096034;28;20655;-20
2021/12/22 00:40:46;;;;;;;4.80;4.10;;;17.90;42.40;;;;;;5094982;28;20199;-21
2021/12/22 00:43:13;;;;;;;4.60;4.10;;;17.80;42.40;;;;;;5095903;28;20208;-21
2021/12/22 00:45:39;;;;;;;4.60;4.20;;;18.00;42.40;;;;;;5113255;28;20186;-21
2021/12/22 00:48:07;;;;;;;4.57;4.07;;;18.30;42.60;;;;;;5113904;28;20218;-19
2021/12/22 00:50:34;;;;;;;5.80;4.47;;;18.40;41.90;;;;;;5096185;28;20271;-21
2021/12/22 00:53:00;;;;;;;4.83;4.30;;;18.40;41.80;;;;;;5094349;28;20214;-23
2021/12/22 00:55:27;;;;;;;5.07;4.50;;;18.30;41.80;;;;;;5112396;28;20548;-20
2021/12/22 00:57:52;;;;;;;5.20;4.40;;;18.30;41.90;;;;;;5097561;28;20583;-22
2021/12/22 01:00:21;;;;;;;4.00;3.60;;;18.20;41.80;;;;;;5115403;28;20202;-24
2021/12/22 01:02:47;;;;;;;4.60;4.10;;;18.20;41.90;;;;;;5118004;28;20375;-22
2021/12/22 01:05:15;;;;;;;4.57;3.90;;;18.10;41.90;;;;;;5117989;28;20201;-20
2021/12/22 01:07:42;;;;;;;5.33;4.03;;;18.10;42.00;;;;;;5098384;28;20659;-22
2021/12/22 01:10:08;;;;;;;4.73;3.83;;;17.90;42.00;;;;;;5117682;28;20199;-24
2021/12/22 01:12:35;;;;;;;4.33;3.90;;;17.80;42.10;;;;;;5100017;28;20565;-20
2021/12/22 01:15:01;;;;;;;5.13;3.90;;;17.70;42.20;;;;;;5116588;28;20204;-21
2021/12/22 01:17:34;;;;;;;4.03;3.67;;;17.70;42.30;;;;;;5096943;28;20332;-20
2021/12/22 01:20:07;;;;;;;4.43;3.80;;;17.60;42.40;;;;;;5097483;28;20189;-23
2021/12/22 01:25:01;;;;;;;4.30;3.87;;;17.80;42.40;;;;;;5117506;28;20191;-20
2021/12/22 01:27:37;;;;;;;4.50;3.80;;;18.00;42.10;;;;;;5116623;28;20531;-21
2021/12/22 01:30:09;;;;;;;4.10;3.70;;;18.10;41.90;;;;;;5117058;28;20445;-19
2021/12/22 01:32:35;;;;;;;4.83;3.70;;;18.10;41.80;;;;;;5098814;28;20201;-22
2021/12/22 01:35:01;;;;;;;4.37;3.97;;;18.10;41.80;;;;;;5117068;28;20190;-24
2021/12/22 01:42:41;;;;;;;3.70;3.40;;;17.90;41.80;;;;;;5031833;28;20252;-23
2021/12/22 01:45:28;;;;;;;4.43;3.83;;;17.90;41.90;;;;;;5034571;28;20215;-23
2021/12/22 01:50:40;;;;;;;4.37;3.63;;;17.80;42.00;;;;;;5034501;28;20214;-22
2021/12/22 01:53:30;;;;;;;3.67;3.17;;;17.70;42.10;;;;;;5035118;28;20201;-22
2021/12/22 01:56:04;;;;;;;4.30;3.77;;;17.60;42.20;;;;;;5035575;28;20223;-22
2021/12/22 01:58:39;;;;;;;4.17;3.70;;;17.50;42.20;;;;;;5035168;28;20219;-24
2021/12/22 02:01:06;;;;;;;4.13;3.73;;;17.40;42.20;;;;;;5033128;28;20223;-21
2021/12/22 02:03:33;;;;;;;6.20;3.60;;;17.40;42.30;;;;;;5034409;28;20208;-23
2021/12/22 02:05:59;;;;;;;4.30;3.90;;;17.40;42.40;;;;;;5033195;28;20192;-22
2021/12/22 02:08:24;;;;;;;4.73;3.80;;;17.70;42.20;;;;;;5034272;28;20220;-21
2021/12/22 02:10:50;;;;;;;3.80;3.40;;;17.90;42.00;;;;;;5034643;28;20211;-22
2021/12/22 02:13:23;;;;;;;3.97;3.27;;;18.00;41.70;;;;;;5034864;28;20492;-20
2021/12/22 02:15:49;;;;;;;3.50;3.20;;;18.00;41.70;;;;;;5035245;28;20185;-22
2021/12/22 02:18:19;;;;;;;3.67;3.30;;;17.80;41.70;;;;;;5035215;28;20190;-20
2021/12/22 02:20:49;;;;;;;4.93;3.80;;;17.80;41.80;;;;;;5034544;28;20271;-22
2021/12/22 02:23:16;;;;;;;4.17;3.43;;;17.80;41.80;;;;;;5034550;28;20493;-21
2021/12/22 02:25:50;;;;;;;5.97;3.83;;;17.70;41.90;;;;;;5031905;28;20189;-19
2021/12/22 02:28:21;;;;;;;3.93;3.60;;;17.60;41.90;;;;;;5033435;28;20217;-21
2021/12/22 02:30:48;;;;;;;4.03;3.60;;;17.60;41.90;;;;;;5034773;28;20642;-21
2021/12/22 02:38:40;;;;;;;4.50;3.53;;;17.40;42.10;;;;;;5035339;28;20193;-24
2021/12/22 02:41:10;;;;;;;3.80;3.30;;;17.30;42.60;;;;;;5036042;28;20522;-22
2021/12/22 02:43:44;;;;;;;3.93;3.53;;;17.20;42.20;;;;;;5034914;28;20282;-22
2021/12/22 02:46:10;;;;;;;3.40;3.10;;;17.30;42.30;;;;;;5033943;28;20191;-24
2021/12/22 02:48:36;;;;;;;3.70;3.37;;;17.50;42.10;;;;;;5033207;28;20212;-23
2021/12/22 02:51:02;;;;;;;5.60;3.87;;;17.70;41.80;;;;;;5032819;28;20308;-23
2021/12/22 02:53:39;;;;;;;3.37;3.07;;;17.80;41.60;;;;;;5034318;28;20231;-22
2021/12/22 02:59:12;;;;;;;4.03;3.23;;;17.70;41.60;;;;;;5026606;28;20213;-23
2021/12/22 03:04:18;;;;;;;3.40;3.10;;;17.60;41.70;;;;;;5035175;28;20192;-19
2021/12/22 03:09:39;;;;;;;3.97;3.40;;;17.50;41.80;;;;;;5024152;28;20213;-22
2021/12/22 03:12:06;;;;;;;4.87;3.70;;;17.40;41.90;;;;;;5032949;28;20189;-23
2021/12/22 03:14:33;;;;;;;4.17;3.47;;;17.40;42.00;;;;;;5033132;28;20603;-22
2021/12/22 03:16:59;;;;;;;3.50;3.20;;;17.30;42.00;;;;;;5035912;28;20578;-21
2021/12/22 03:19:30;;;;;;;3.37;3.07;;;17.30;42.00;;;;;;5033187;28;20199;-21
2021/12/22 03:22:02;;;;;;;3.80;3.30;;;17.20;42.00;;;;;;5033974;28;20303;-20
2021/12/22 03:24:29;;;;;;;3.60;2.90;;;17.10;42.10;;;;;;5033663;28;20201;-23
2021/12/22 03:26:55;;;;;;;3.60;3.30;;;17.30;42.00;;;;;;5035122;28;20205;-20
2021/12/22 03:29:21;;;;;;;4.07;3.27;;;17.60;41.80;;;;;;5032951;28;20294;-23
2021/12/22 03:31:47;;;;;;;3.63;3.20;;;17.70;41.50;;;;;;5033620;28;20551;-17
2021/12/22 03:34:14;;;;;;;3.40;3.10;;;17.70;41.50;;;;;;5033201;28;20482;-22
2021/12/22 03:36:42;;;;;;;3.40;3.00;;;17.60;41.50;;;;;;5033229;28;20283;-24
2021/12/22 03:39:11;;;;;;;3.63;3.03;;;17.50;41.60;;;;;;5032983;28;20254;-20
2021/12/22 03:41:37;;;;;;;3.40;3.10;;;17.40;41.70;;;;;;5034796;28;20192;-23
2021/12/22 03:44:06;;;;;;;4.10;3.50;;;17.30;41.80;;;;;;5033366;28;20449;-22
2021/12/22 03:46:33;;;;;;;3.20;2.90;;;17.30;41.80;;;;;;5035151;28;20212;-22
2021/12/22 03:48:59;;;;;;;3.70;3.40;;;17.30;41.90;;;;;;5032734;28;20489;-21
2021/12/22 03:51:26;;;;;;;3.60;3.30;;;17.30;41.80;;;;;;5033893;28;20186;-23
2021/12/22 03:53:51;;;;;;;3.50;3.20;;;17.30;41.80;;;;;;5031954;28;20193;-21
2021/12/22 03:56:17;;;;;;;3.57;3.23;;;17.20;41.80;;;;;;5031331;28;20242;-21
2021/12/22 03:58:43;;;;;;;3.47;3.13;;;17.20;41.70;;;;;;5031806;28;20341;-24
2021/12/22 04:01:08;;;;;;;3.27;2.97;;;17.20;41.80;;;;;;5033874;28;20190;-21
2021/12/22 04:03:36;;;;;;;3.53;3.13;;;17.40;41.70;;;;;;5034691;28;20282;-23
2021/12/22 04:06:03;;;;;;;3.63;3.30;;;19.80;40.60;;;;;;5032330;28;20201;-25
2021/12/22 04:08:29;;;;;;;2.90;2.60;;;20.90;38.70;;;;;;5033828;28;20219;-20
2021/12/22 04:10:54;;;;;;;3.67;3.00;;;21.30;37.90;;;;;;5034247;28;20219;-21
2021/12/22 04:13:20;;;;;;;3.53;3.23;;;21.40;37.70;;;;;;5034737;28;20502;-23
2021/12/22 04:15:46;;;;;;;4.67;3.00;;;21.70;37.50;;;;;;5031399;28;20200;-24
2021/12/22 04:18:12;;;;;;;3.20;2.90;;;22.00;37.20;;;;;;5031437;28;20227;-21
2021/12/22 04:20:38;;;;;;;3.37;2.93;;;22.50;36.80;;;;;;5030866;28;20528;-21
2021/12/22 04:23:04;;;;;;;2.93;2.63;;;23.10;36.40;;;;;;5034009;28;20617;-20
2021/12/22 04:25:30;;;;;;;3.03;2.70;;;23.60;36.40;;;;;;5033224;28;20192;-22
2021/12/22 04:28:04;;;;;;;3.33;3.03;;;24.00;35.60;;;;;;5033010;28;20230;-23
2021/12/22 04:30:30;;;;;;;3.70;3.10;;;24.40;35.30;;;;;;5035289;28;20288;-24
2021/12/22 04:32:56;;;;;;;3.43;3.13;;;24.90;34.90;;;;;;5036478;28;20202;-22
2021/12/22 04:35:22;;;;;;;4.13;3.30;;;25.00;34.70;;;;;;5036299;28;20224;-23
2021/12/22 04:37:48;;;;;;;3.40;2.90;;;25.00;34.60;;;;;;5035150;28;20186;-21
2021/12/22 04:40:13;;;;;;;3.37;2.90;;;25.30;34.60;;;;;;5036243;28;20196;-22
2021/12/22 04:42:39;;;;;;;4.10;3.10;;;25.60;34.90;;;;;;5035597;28;20226;-21
2021/12/22 04:45:07;;;;;;;3.07;2.77;;;26.00;34.20;;;;;;5035494;28;20617;-22
2021/12/22 04:47:33;;;;;;;3.13;2.77;;;25.90;34.00;;;;;;5036603;28;20628;-23
2021/12/22 04:50:01;;;;;;;3.50;3.00;;;26.00;34.00;;;;;;5036096;28;20211;-21
2021/12/22 04:52:35;;;;;;;2.80;2.60;;;26.10;34.10;;;;;;5037180;28;20177;-23
2021/12/22 04:55:04;;;;;;;3.20;2.90;;;26.10;34.00;;;;;;5037610;28;20196;-20
2021/12/22 04:57:31;;;;;;;3.00;2.70;;;26.60;33.80;;;;;;5035713;28;20288;-24
2021/12/22 04:59:58;;;;;;;3.40;3.10;;;26.70;33.70;;;;;;5035534;28;20188;-23
2021/12/22 05:02:23;;;;;;;3.57;2.77;;;26.70;33.70;;;;;;5034042;28;20200;-21
2021/12/22 05:04:49;;;;;;;3.00;2.53;;;26.60;33.70;;;;;;5035269;28;20188;-24
2021/12/22 05:07:15;;;;;;;4.57;3.10;;;26.60;33.80;;;;;;5036563;28;20204;-20
2021/12/22 05:09:40;;;;;;;2.77;2.57;;;26.40;33.80;;;;;;5036387;28;20232;-24
2021/12/22 05:12:07;;;;;;;3.43;2.80;;;26.20;34.00;;;;;;5035552;28;20199;-22
2021/12/22 05:14:32;;;;;;;3.00;2.70;;;26.00;34.00;;;;;;5035328;28;20185;-24
2021/12/22 05:17:04;;;;;;;3.53;2.80;;;25.70;34.20;;;;;;5034638;28;20460;-23
2021/12/22 05:19:30;;;;;;;3.23;2.87;;;25.40;34.40;;;;;;5036384;28;20199;-23
2021/12/22 05:21:56;;;;;;;3.07;2.77;;;24.80;34.60;;;;;;5034566;28;20205;-22
2021/12/22 05:24:22;;;;;;;2.60;2.40;;;24.40;35.00;;;;;;5034920;28;20192;-23
2021/12/22 05:26:48;;;;;;;3.00;2.70;;;24.00;35.40;;;;;;5033987;28;20486;-21
2021/12/22 05:29:14;;;;;;;3.43;3.13;;;23.50;35.70;;;;;;5035464;28;20199;-22
2021/12/22 05:31:40;;;;;;;3.17;2.80;;;23.00;36.20;;;;;;5035748;28;20470;-24
2021/12/22 05:34:05;;;;;;;3.63;2.83;;;22.40;36.60;;;;;;5035206;28;20196;-23
2021/12/22 05:36:31;;;;;;;3.57;2.70;;;22.00;37.00;;;;;;5034184;28;20195;-22
2021/12/22 05:38:57;;;;;;;3.53;3.17;;;21.60;37.40;;;;;;5035462;28;20249;-23
2021/12/22 05:41:24;;;;;;;3.67;3.10;;;21.40;37.70;;;;;;5034653;28;20202;-22
2021/12/22 05:43:50;;;;;;;3.73;3.00;;;21.50;37.80;;;;;;5034064;28;20201;-20
2021/12/22 05:46:16;;;;;;;2.90;2.60;;;21.90;37.50;;;;;;5018487;28;20231;-23
2021/12/22 05:48:44;;;;;;;2.90;2.60;;;22.90;36.80;;;;;;5033769;28;20314;-22
2021/12/22 05:51:10;;;;;;;3.33;3.03;;;24.30;35.80;;;;;;5034303;28;20185;-23
2021/12/22 05:53:36;;;;;;;3.03;2.70;;;25.40;34.80;;;;;;5034166;28;20222;-21
2021/12/22 05:56:03;;;;;;;3.23;2.93;;;25.90;34.30;;;;;;5032082;28;20192;-24
2021/12/22 05:58:29;;;;;;;3.10;2.80;;;25.80;34.10;;;;;;5034819;28;20648;-24
2021/12/22 06:00:55;;;;;;;3.30;3.00;;;25.70;34.20;;;;;;5032517;28;20295;-20
2021/12/22 06:03:21;;;;;;;3.53;3.03;;;25.90;34.10;;;;;;5033457;28;20215;-22
2021/12/22 06:05:47;;;;;;;3.17;2.83;;;26.30;34.00;;;;;;5032897;28;20207;-23
2021/12/22 06:08:12;;;;;;;3.40;2.83;;;26.50;33.70;;;;;;5032413;28;20209;-22
2021/12/22 06:10:38;;;;;;;3.10;2.83;;;26.40;33.60;;;;;;5030532;28;20366;-22
2021/12/22 06:13:06;;;;;;;3.33;3.00;;;26.20;33.60;;;;;;5032217;28;20565;-22
2021/12/22 06:15:34;;;;;;;3.40;3.10;;;26.10;33.80;;;;;;5033057;28;20189;-23
2021/12/22 06:18:01;;;;;;;3.60;3.10;;;25.90;33.90;;;;;;5033306;28;20195;-24
2021/12/22 06:20:27;;;;;;;3.27;2.93;;;25.60;34.00;;;;;;5030752;28;20497;-21
2021/12/22 06:22:53;;;;;;;3.47;2.90;;;25.30;34.20;;;;;;5030322;28;20188;-25
2021/12/22 06:25:19;;;;;;;2.90;2.40;;;25.00;34.40;;;;;;5031521;28;20654;-22
2021/12/22 06:27:45;;;;;;;3.13;2.83;;;24.90;34.70;;;;;;5031188;28;20606;-23
2021/12/22 06:30:11;;;;;;;3.80;3.13;;;24.60;34.90;;;;;;5030020;28;20200;-21
2021/12/22 06:32:37;;;;;;;3.47;3.03;;;24.40;35.10;;;;;;5030506;28;20256;-24
2021/12/22 06:35:03;;;;;;;3.80;2.63;;;24.00;35.40;;;;;;5030295;28;20558;-27
2021/12/22 06:37:29;;;;;;;3.23;2.93;;;23.80;35.70;;;;;;5031036;28;20219;-22
2021/12/22 06:39:54;;;;;;;3.13;2.83;;;23.60;35.80;;;;;;5030952;28;20195;-22
2021/12/22 06:42:20;;;;;;;3.27;2.97;;;23.50;35.90;;;;;;5030577;28;20592;-22
2021/12/22 06:44:46;;;;;;;3.53;2.90;;;23.50;35.90;;;;;;5031340;28;20204;-25
2021/12/22 06:47:11;;;;;;;3.10;2.80;;;23.40;35.90;;;;;;5030907;28;20314;-21
2021/12/22 06:49:38;;;;;;;4.37;2.77;;;23.40;36.00;;;;;;5030383;28;20242;-22
2021/12/22 06:52:04;;;;;;;3.20;2.90;;;23.60;35.80;;;;;;5031997;28;20555;-21
2021/12/22 06:54:30;;;;;;;3.43;3.10;;;23.70;35.70;;;;;;5030912;28;20197;-23
2021/12/22 06:56:56;;;;;;;3.70;3.10;;;23.70;35.70;;;;;;5030262;28;20215;-21
2021/12/22 06:59:21;;;;;;;4.53;2.97;;;23.60;35.70;;;;;;5028677;28;20263;-21
2021/12/22 07:01:48;;;;;;;3.03;2.70;;;23.40;35.80;;;;;;5030557;28;20263;-24
2021/12/22 07:04:13;;;;;;;3.10;2.73;;;23.20;35.90;;;;;;5029540;28;20197;-23
2021/12/22 07:06:39;;;;;;;4.10;2.70;;;23.20;35.90;;;;;;5028558;28;20487;-23
2021/12/22 07:09:07;;;;;;;3.13;2.83;;;23.40;35.90;;;;;;5029787;28;20270;-24
2021/12/22 07:11:35;;;;;;;3.43;2.70;;;23.70;35.70;;;;;;5028641;28;20225;-24
2021/12/22 07:14:01;;;;;;;3.37;3.00;;;24.10;35.30;;;;;;5027300;28;20216;-22
2021/12/22 07:16:27;;;;;;;3.30;2.80;;;24.50;35.00;;;;;;5008937;28;20414;-23
2021/12/22 07:18:53;;;;;;;3.40;3.10;;;24.90;34.80;;;;;;5009467;28;20224;-24
2021/12/22 07:21:19;;;;;;;4.20;2.97;;;25.30;34.50;;;;;;5009894;28;20194;-22
2021/12/22 07:23:44;;;;;;;4.07;2.93;;;25.60;34.30;;;;;;5008343;28;20546;-21
2021/12/22 07:26:13;;;;;;;3.57;2.87;;;25.80;34.10;;;;;;5008776;28;20574;-22
2021/12/22 07:28:45;;;;;;;3.57;3.27;;;25.80;34.00;;;;;;5009518;28;20314;-24
2021/12/22 07:31:11;;;;;;;4.90;3.87;;;25.70;34.00;;;;;;5009344;28;20185;-23
2021/12/22 07:33:38;;;;;;;4.80;3.90;;;25.90;34.00;;;;;;5010069;28;20319;-22
2021/12/22 07:36:05;;;;;;;5.50;3.70;;;26.00;33.90;;;;;;5009758;28;20201;-24
2021/12/22 07:38:46;;;;;;;4.00;3.40;;;26.00;33.90;;;;;;5009538;28;20189;-23
2021/12/22 07:41:12;;;;;;;5.33;4.00;;;26.00;34.20;;;;;;5010134;28;20190;-21
2021/12/22 07:43:39;;;;;;;5.10;3.97;;;25.90;33.80;;;;;;5009186;28;20209;-21
2021/12/22 07:46:08;;;;;;;5.17;3.93;;;25.80;34.00;;;;;;5009383;28;20201;-23
2021/12/22 07:48:34;;;;;;;5.93;3.90;;;25.50;34.20;;;;;;5009085;28;20495;-23
2021/12/22 07:51:01;;;;;;;4.93;3.90;;;25.10;34.30;;;;;;5010185;28;20524;-24
2021/12/22 07:53:27;;;;;;;4.93;3.80;;;24.90;34.60;;;;;;5008732;28;20193;-23
2021/12/22 07:55:53;;;;;;;5.33;4.00;;;24.70;34.80;;;;;;5008761;28;20631;-23
2021/12/22 07:58:20;;;;;;;7.07;3.87;;;24.40;35.00;;;;;;5008423;28;20307;-36
2021/12/22 08:00:46;;;;;;;5.03;4.30;;;24.10;35.30;;;;;;5008779;28;20866;-23
2021/12/22 08:03:12;;;;;;;7.33;4.10;;;24.00;35.50;;;;;;5007702;28;20213;-22
2021/12/22 08:05:38;;;;;;;5.50;4.10;;;23.80;35.70;;;;;;5008280;28;20177;-20
2021/12/22 08:08:04;;;;;;;5.03;4.43;;;23.60;35.80;;;;;;5008850;28;20265;-23
2021/12/22 08:10:30;;;;;;;4.33;3.93;;;23.50;35.90;;;;;;5007882;28;20567;-23
2021/12/22 08:12:56;;;;;;;6.63;4.60;;;23.50;36.00;;;;;;5008948;28;20200;-24
2021/12/22 08:15:21;;;;;;;5.93;4.20;;;23.40;36.00;;;;;;5008368;28;20199;-23
2021/12/22 08:17:47;;;;;;;5.60;4.47;;;23.60;35.90;;;;;;5006483;28;20201;-23
2021/12/22 08:20:13;;;;;;;7.00;4.60;;;23.80;35.80;;;;;;5007247;28;20533;-22
2021/12/22 08:22:39;;;;;;;7.93;4.43;;;24.10;35.60;;;;;;5009527;28;20268;-22
2021/12/22 08:25:06;;;;;;;6.63;4.73;;;24.30;35.50;;;;;;5008752;28;20197;-24
2021/12/22 08:27:32;;;;;;;8.97;4.53;;;24.40;35.60;;;;;;5008170;28;20308;-21
2021/12/22 08:29:58;;;;;;;5.03;4.20;;;24.10;35.70;;;;;;5007892;28;20551;-21
2021/12/22 08:32:23;;;;;;;6.07;4.20;;;23.80;36.00;;;;;;5008188;28;20398;-24
2021/12/22 08:34:54;;;;;;;7.30;4.30;;;23.40;36.30;;;;;;5009247;28;20180;-22
2021/12/22 08:40:06;;;;;;;6.73;4.60;;;22.50;37.10;;;;;;5007540;28;20269;-26
2021/12/22 08:42:32;;;;;;;5.90;4.20;;;22.20;37.40;;;;;;5007192;28;20193;-24
2021/12/22 08:44:58;;;;;;;5.70;4.40;;;22.60;37.40;;;;;;5007788;28;20597;-25
2021/12/22 08:47:23;;;;;;;8.70;4.50;;;23.00;37.10;;;;;;5008159;28;20228;-22
2021/12/22 08:49:49;;;;;;;4.90;4.17;;;23.90;36.60;;;;;;5008514;28;20295;-20
2021/12/22 08:52:15;;;;;;;6.17;4.60;;;24.90;35.80;;;;;;5008943;28;20185;-22
2021/12/22 08:54:42;;;;;;;5.30;3.97;;;24.90;35.30;;;;;;5007268;28;20364;-24
2021/12/22 08:57:08;;;;;;;6.87;4.30;;;25.20;35.20;;;;;;5006936;28;20503;-26
2021/12/22 08:59:34;;;;;;;4.90;4.37;;;25.50;35.10;;;;;;5006099;28;20350;-22
2021/12/22 09:02:00;;;;;;;6.10;4.23;;;26.10;35.20;;;;;;5008288;28;20202;-23
2021/12/22 09:04:26;;;;;;;5.63;4.30;;;26.50;34.40;;;;;;5006242;28;20192;-25
2021/12/22 09:06:53;;;;;;;6.20;4.53;;;26.50;34.20;;;;;;5005744;28;20276;-25
2021/12/22 09:09:20;;;;;;;6.43;4.40;;;26.30;34.30;;;;;;5007253;28;20609;-23
2021/12/22 09:11:47;;;;;;;5.90;4.33;;;26.40;34.30;;;;;;5006507;28;20266;-23
2021/12/22 09:14:13;;;;;;;4.97;3.93;;;26.50;34.20;;;;;;5007124;28;20196;-23
2021/12/22 09:16:39;;;;;;;5.60;4.30;;;26.70;34.20;;;;;;5008110;28;20199;-24
2021/12/22 09:19:07;;;;;;;6.63;4.13;;;26.80;34.10;;;;;;5011319;28;20191;-22
2021/12/22 09:21:33;;;;;;;7.33;3.93;;;26.60;34.00;;;;;;5011544;28;20208;-23
2021/12/22 09:23:59;;;;;;;5.13;4.07;;;26.40;34.20;;;;;;5011963;28;20220;-23
2021/12/22 09:26:25;;;;;;;7.87;4.67;;;26.10;34.30;;;;;;5010932;28;20367;-24
2021/12/22 09:28:51;;;;;;;5.67;4.47;;;25.80;34.50;;;;;;5011821;28;20335;-21
2021/12/22 09:31:18;;;;;;;6.57;4.40;;;25.40;34.80;;;;;;5008825;28;20201;-22
2021/12/22 09:33:44;;;;;;;5.90;4.57;;;25.10;35.00;;;;;;5009929;28;20276;-22
2021/12/22 09:36:11;;;;;;;7.43;3.80;;;24.70;35.30;;;;;;5010910;28;20205;-23
2021/12/22 09:38:37;;;;;;;5.67;4.47;;;24.30;35.60;;;;;;5011697;28;20618;-26
2021/12/22 09:41:04;;;;;;;5.17;4.37;;;23.90;35.90;;;;;;5009585;28;20211;-21
2021/12/22 09:43:30;;;;;;;5.77;4.60;;;23.50;36.30;;;;;;5009497;28;20195;-22
2021/12/22 09:46:01;;;;;;;5.43;4.13;;;23.20;36.60;;;;;;5010956;28;20223;-21
2021/12/22 09:53:45;;;;;;;5.73;4.23;;;22.40;37.30;;;;;;4998872;28;20242;-24
2021/12/22 09:56:12;;;;;;;5.37;4.40;;;22.30;37.40;;;;;;5008770;28;20211;-23
2021/12/22 09:58:43;;;;;;;5.23;4.17;;;22.50;37.40;;;;;;5010119;28;20233;-23
2021/12/22 10:01:10;;;;;;;4.77;4.27;;;22.90;37.60;;;;;;5010854;28;20594;-22
2021/12/22 10:03:36;;;;;;;4.73;4.00;;;23.50;36.70;;;;;;5009948;28;20592;-23
2021/12/22 10:06:02;;;;;;;5.97;4.37;;;24.50;36.00;;;;;;5010033;28;20296;-25
2021/12/22 10:08:29;;;;;;;5.57;4.70;;;25.50;35.20;;;;;;5010524;28;20279;-26
2021/12/22 10:11:09;;;;;;;7.40;4.53;;;25.90;34.70;;;;;;5008745;28;20468;-25
2021/12/22 10:13:37;;;;;;;5.20;3.93;;;26.20;34.50;;;;;;5008355;28;20291;-25
2021/12/22 10:16:11;;;;;;;5.43;4.10;;;26.50;34.30;;;;;;5009616;28;20207;-23
2021/12/22 10:18:37;;;;;;;5.57;4.40;;;26.60;34.10;;;;;;5010348;28;20193;-23
2021/12/22 10:21:14;;;;;;;4.40;4.00;;;26.60;34.00;;;;;;5008902;28;20215;-24
2021/12/22 10:23:44;;;;;;;5.00;3.90;;;26.70;34.20;;;;;;5009447;28;20250;-21
2021/12/22 10:26:12;;;;;;;4.47;3.80;;;26.60;34.20;;;;;;5010361;28;20477;-23
2021/12/22 10:29:01;;;;;;;4.43;3.80;;;26.50;34.20;;;;;;5009641;28;20268;-23
2021/12/22 10:31:43;;;;;;;4.40;3.97;;;26.30;34.30;;;;;;5009362;28;20365;-23
2021/12/22 10:34:14;;;;;;;4.83;3.87;;;26.20;34.40;;;;;;5007744;28;20180;-22
2021/12/22 10:36:54;;;;;;;5.93;4.13;;;26.00;34.50;;;;;;5009579;28;20229;-21
2021/12/22 10:39:27;;;;;;;4.87;3.60;;;25.70;34.70;;;;;;5008417;28;20235;-22
2021/12/22 10:42:08;;;;;;;4.10;3.70;;;25.40;34.90;;;;;;5008544;28;20721;-22
2021/12/22 10:44:39;;;;;;;4.33;3.93;;;25.10;35.10;;;;;;5008627;28;20202;-22
2021/12/22 10:47:20;;;;;;;3.90;3.50;;;24.70;35.40;;;;;;5007954;28;20577;-23
2021/12/22 10:50:04;;;;;;;4.70;3.50;;;24.30;35.70;;;;;;5007271;28;20229;-23
2021/12/22 10:52:31;;;;;;;4.90;3.50;;;23.90;36.10;;;;;;5007974;28;20703;-22
2021/12/22 10:55:09;;;;;;;3.97;3.57;;;23.60;36.40;;;;;;5008436;28;20652;-23
2021/12/22 10:57:37;;;;;;;3.80;3.40;;;23.30;36.60;;;;;;5009627;28;20207;-24
2021/12/22 11:00:25;;;;;;;4.13;3.73;;;23.00;37.30;;;;;;5008337;28;20193;-22
2021/12/22 11:03:04;;;;;;;4.60;3.67;;;22.70;37.20;;;;;;5007251;28;20197;-23
2021/12/22 11:05:30;;;;;;;4.63;3.63;;;22.50;37.50;;;;;;5008818;28;20441;-22
2021/12/22 11:07:58;;;;;;;3.87;3.40;;;22.30;37.60;;;;;;5008193;28;20267;-21
2021/12/22 11:10:28;;;;;;;4.97;3.13;;;22.10;37.80;;;;;;5007807;28;20324;-23
2021/12/22 11:13:06;;;;;;;4.07;3.63;;;22.40;37.80;;;;;;5008453;28;20282;-22
2021/12/22 11:15:42;;;;;;;3.93;3.30;;;23.00;37.40;;;;;;5008583;28;20196;-20
2021/12/22 11:18:24;;;;;;;4.30;3.00;;;23.90;36.60;;;;;;5007920;28;20219;-25
2021/12/22 11:21:08;;;;;;;3.33;3.00;;;24.70;35.90;;;;;;5009011;28;20198;-23
2021/12/22 11:23:35;;;;;;;3.80;3.10;;;25.40;35.40;;;;;;5009091;28;20189;-23
2021/12/22 11:26:01;;;;;;;3.53;2.97;;;25.90;34.90;;;;;;5008723;28;20173;-25
2021/12/22 11:28:27;;;;;;;3.37;3.07;;;26.20;34.60;;;;;;5006232;28;20228;-21
2021/12/22 11:30:53;;;;;;;3.23;2.90;;;26.30;34.50;;;;;;5006520;28;20197;-22
2021/12/22 11:33:19;;;;;;;3.10;2.80;;;26.30;34.50;;;;;;5006398;28;20197;-21
2021/12/22 11:35:45;;;;;;;3.53;3.13;;;26.10;34.60;;;;;;5006688;28;20219;-22
2021/12/22 11:38:12;;;;;;;3.97;3.00;;;26.10;34.60;;;;;;5008752;28;20490;-22
2021/12/22 11:40:37;;;;;;;3.07;2.70;;;26.10;34.70;;;;;;5007712;28;20196;-22
2021/12/22 11:43:03;;;;;;;3.77;2.70;;;26.10;34.70;;;;;;5007595;28;20289;-20
2021/12/22 11:45:33;;;;;;;3.10;2.60;;;25.90;34.80;;;;;;5008757;28;20208;-23
2021/12/22 11:47:59;;;;;;;3.03;2.70;;;25.70;34.90;;;;;;5006690;28;20329;-24
2021/12/22 11:50:34;;;;;;;3.63;2.80;;;25.30;35.10;;;;;;5005329;28;20447;-21
2021/12/22 11:53:06;;;;;;;2.73;2.53;;;24.90;35.40;;;;;;5009216;28;20339;-23
2021/12/22 11:55:50;;;;;;;3.00;2.70;;;24.60;35.70;;;;;;5008253;28;20586;-22
2021/12/22 11:58:26;;;;;;;2.90;2.70;;;24.30;36.00;;;;;;5006445;28;20228;-20
2021/12/22 12:00:55;;;;;;;3.10;2.80;;;23.90;36.20;;;;;;5006136;28;20259;-20
2021/12/22 12:03:30;;;;;;;3.33;2.60;;;23.60;36.60;;;;;;5007158;28;20279;-20
2021/12/22 12:06:16;;;;;;;2.90;2.57;;;23.20;36.80;;;;;;5009841;28;20636;-24
2021/12/22 12:08:55;;;;;;;2.83;2.53;;;22.90;37.20;;;;;;5014267;28;20198;-23
2021/12/22 12:11:41;;;;;;;3.63;2.50;;;22.60;37.40;;;;;;5014344;28;20197;-22
2021/12/22 12:23:31;;;;;;;2.80;2.40;;;21.80;38.40;;;;;;5005911;28;20217;-23
2021/12/22 12:26:04;;;;;;;2.50;2.20;;;22.30;38.10;;;;;;5006131;28;20197;-22
2021/12/22 12:28:31;;;;;;;2.80;2.50;;;23.20;37.50;;;;;;5005626;28;20522;-21
2021/12/22 12:31:00;;;;;;;2.73;2.47;;;24.10;36.70;;;;;;5004695;28;20353;-24
2021/12/22 12:33:32;;;;;;;2.37;2.17;;;24.90;36.10;;;;;;5007699;28;20174;-22
2021/12/22 12:36:13;;;;;;;3.90;2.33;;;25.10;35.60;;;;;;5003515;28;20645;-24
2021/12/22 12:38:46;;;;;;;2.40;2.20;;;25.30;35.60;;;;;;5006635;28;20193;-23
2021/12/22 12:41:27;;;;;;;2.50;2.20;;;24.90;35.70;;;;;;5005538;28;20403;-20
2021/12/22 12:43:59;;;;;;;2.37;2.00;;;24.50;35.90;;;;;;5006579;28;20336;-21
2021/12/22 12:46:37;;;;;;;2.60;2.40;;;24.40;36.20;;;;;;5004996;28;20230;-21
2021/12/22 12:49:03;;;;;;;2.43;2.20;;;24.10;36.50;;;;;;5007184;28;20209;-23
2021/12/22 12:51:34;;;;;;;2.23;2.00;;;23.80;36.80;;;;;;5006189;28;20486;-21
2021/12/22 12:54:09;;;;;;;2.27;2.03;;;23.40;37.10;;;;;;5012222;28;20214;-24
2021/12/22 12:56:36;;;;;;;4.00;2.30;;;23.30;37.70;;;;;;5010882;28;20216;-23
2021/12/22 12:59:08;;;;;;;2.80;2.27;;;23.20;38.00;;;;;;5009424;28;20216;-21
2021/12/22 13:01:50;;;;;;;6.50;2.40;;;23.40;38.00;;;;;;5010311;28;20445;-23
2021/12/22 13:04:25;;;;;;;3.83;2.10;;;23.60;38.00;;;;;;5010258;28;20486;-23
2021/12/22 13:06:51;;;;;;;3.00;2.50;;;23.40;38.10;;;;;;5010730;28;20338;-25
2021/12/22 13:09:27;;;;;;;2.97;2.17;;;22.90;38.50;;;;;;5010836;28;20335;-22
2021/12/22 13:11:58;;;;;;;3.07;2.27;;;22.60;39.00;;;;;;5010299;28;20197;-23
2021/12/22 13:17:19;;;;;;;2.70;2.27;;;22.60;39.40;;;;;;5010232;28;20196;-23
2021/12/22 13:19:48;;;;;;;7.47;2.40;;;22.40;39.40;;;;;;5010282;28;20264;-21
2021/12/22 13:22:22;;;;;;;4.00;2.33;;;22.30;39.60;;;;;;5010321;28;20190;-20
2021/12/22 13:24:48;;;;;;;4.53;2.67;;;22.10;39.70;;;;;;5026348;28;20201;-24
2021/12/22 13:27:31;;;;;;;4.87;2.63;;;21.90;39.90;;;;;;5009987;28;20201;-22
2021/12/22 13:30:13;;;;;;;3.23;2.37;;;21.90;40.10;;;;;;5009451;28;20189;-23
2021/12/22 13:32:57;;;;;;;6.63;2.67;;;21.70;40.00;;;;;;5011311;28;20243;-22
2021/12/22 13:35:36;;;;;;;3.43;2.03;;;21.70;40.10;;;;;;5008983;28;20257;-23
2021/12/22 13:38:16;;;;;;;4.00;2.20;;;21.60;40.20;;;;;;5007800;28;20209;-22
2021/12/22 13:40:44;;;;;;;4.23;2.40;;;21.50;40.30;;;;;;5008965;28;20215;-24